AU-0108 weather

Wheeler Drome
Western Australia, Australia

Public forecast

Using degrees Celsius for public forecast. Weather courtesy of forecast.io.

Closest aviation weather report (METAR) to Wheeler Drome

Closest report is Perth Jandakot Airport, 41.4 nm (76.7 km) N. Retrieved 2020/06/06 19:30 UTC (28 minutes ago):

YPJT 061930Z AUTO 00000KT 5000 // OVC110 15/12 Q1020 RF000/0000

Closest aviation forecast (TAF) to Wheeler Drome

Forecast is more than 12 hours old.

Closest forecast is Perth Jandakot Airport, 41.4 nm (76.7 km) N. Retrieved 2020/06/06 06:00 UTC (14 hours ago):

TAF YPJT 060459Z 0606/0700 02010KT CAVOK FM061500 VRB03KT 9999 -SHRA SCT030 BKN090 INTER 0621/0700 VRB10G20KT 6000 SHRA SCT020